Flight Track Log - Related Links

Times and Time Zones

All times are in EDT time to prevent confusion due to time zone crossing. See the FAB822 flight status page for this flight to view local times or setup timezone preferences in your user account.

Time Position Orientation Groundspeed Altitude Reporting Facility
EDT Latitude Longitude Course Direction KTS MPH feet Rate Location/Type
Wed 11:37:00 AM 68.3133 -79.6971 128° Southeast  Level Estimated
Wed 11:38:00 AM 68.2709 -79.5588 130° Southeast  Level FlightAware Approximate
Wed 11:39:00 AM 68.2284 -79.4211 130° Southeast  Level FlightAware Approximate
Wed 11:40:00 AM 68.1854 -79.2847 131° Southeast  Level Estimated
Wed 11:41:00 AM 68.1420 -79.1494 131° Southeast  Level FlightAware Approximate
Wed 11:42:00 AM 68.0985 -79.0147 131° Southeast  Level FlightAware Approximate
Wed 11:43:00 AM 68.0552 -78.8798 132° Southeast  Level Estimated
Wed 11:44:00 AM 68.0104 -78.7486 132° Southeast  Level FlightAware Approximate
Wed 11:45:00 AM 67.9654 -78.6179 132° Southeast  Level FlightAware Approximate
Wed 11:46:00 AM 67.9204 -78.4878 133° Southeast  Level FlightAware Approximate
Wed 11:47:00 AM 67.8753 -78.3581 133° Southeast  Level FlightAware Approximate
Wed 11:48:00 AM 67.8315 -78.2256 131° Southeast  Level Estimated
Wed 11:49:00 AM 67.7876 -78.0936 131° Southeast  Level Estimated
Wed 11:50:00 AM 67.7436 -77.9622 131° Southeast  Level FlightAware Approximate
Wed 11:51:00 AM 67.6994 -77.8313 132° Southeast  Level FlightAware Approximate
Wed 11:52:00 AM 67.6551 -77.7009 132° Southeast  Level FlightAware Approximate
Wed 11:53:00 AM 67.6107 -77.5710 132° Southeast  Level FlightAware Approximate
Wed 11:54:00 AM 67.5662 -77.4416 132° Southeast  Level FlightAware Approximate
Wed 11:55:00 AM 67.5216 -77.3127 132° Southeast  Level FlightAware Approximate
Wed 11:56:00 AM 67.4769 -77.1842 132° Southeast  Level FlightAware Approximate
Wed 11:57:00 AM 67.4321 -77.0563 132° Southeast  Level FlightAware Approximate
Wed 11:58:00 AM 67.3872 -76.9288 132° Southeast  Level FlightAware Approximate
Wed 11:59:00 AM 67.3422 -76.8018 133° Southeast  Level FlightAware Approximate
Wed 12:00:00 PM 67.2972 -76.6751 133° Southeast  Level Estimated
Wed 12:01:00 PM 67.2519 -76.5493 133° Southeast  Level FlightAware Approximate
Wed 12:02:00 PM 67.2065 -76.4239 133° Southeast  Level FlightAware Approximate
Wed 12:03:00 PM 67.1610 -76.2990 133° Southeast  Level FlightAware Approximate
Wed 12:04:00 PM 67.1154 -76.1747 133° Southeast  Level FlightAware Approximate
Wed 12:05:00 PM 67.0697 -76.0507 133° Southeast  Level FlightAware Approximate
Wed 12:06:00 PM 67.0239 -75.9273 134° Southeast  Level FlightAware Approximate
Wed 12:07:00 PM 66.9781 -75.8043 134° Southeast  Level FlightAware Approximate
Wed 12:08:00 PM 66.9321 -75.6817 134° Southeast  Level FlightAware Approximate
Wed 12:09:00 PM 66.8860 -75.5597 134° Southeast  Level FlightAware Approximate
Wed 12:10:00 PM 66.8399 -75.4381 134° Southeast  Level FlightAware Approximate
Wed 12:11:00 PM 66.7936 -75.3169 134° Southeast  Level FlightAware Approximate
Wed 12:12:00 PM 66.7473 -75.1962 134° Southeast  Level FlightAware Approximate
Wed 12:13:00 PM 66.7008 -75.0760 134° Southeast  Level FlightAware Approximate
Wed 12:14:00 PM 66.6543 -74.9562 134° Southeast  Level FlightAware Approximate
Wed 12:15:00 PM 66.6077 -74.8369 135° Southeast  Level FlightAware Approximate
Wed 12:16:00 PM 66.5610 -74.7180 135° Southeast  Level FlightAware Approximate
Wed 12:17:00 PM 66.5142 -74.5995 135° Southeast  Level FlightAware Approximate
Wed 12:18:00 PM 66.4673 -74.4815 135° Southeast  Level FlightAware Approximate
Wed 12:19:00 PM 66.4203 -74.3640 135° Southeast  Level FlightAware Approximate
Wed 12:20:00 PM 66.3732 -74.2468 135° Southeast  Level FlightAware Approximate
Wed 12:21:00 PM 66.3261 -74.1301 135° Southeast  Level FlightAware Approximate
Wed 12:22:00 PM 66.2788 -74.0139 135° Southeast  Level FlightAware Approximate
Wed 12:23:00 PM 66.2315 -73.8981 135° Southeast  Level FlightAware Approximate
Wed 12:24:00 PM 66.1841 -73.7827 135° Southeast  Level FlightAware Approximate
Wed 12:25:00 PM 66.1366 -73.6678 136° Southeast  Level FlightAware Approximate
Wed 12:26:00 PM 66.0890 -73.5533 136° Southeast  Level FlightAware Approximate
Wed 12:27:00 PM 66.0413 -73.4392 136° Southeast  Level FlightAware Approximate
Wed 12:28:00 PM 65.9936 -73.3256 136° Southeast  Level FlightAware Approximate
Wed 12:29:00 PM 65.9457 -73.2123 136° Southeast  Level FlightAware Approximate
Wed 12:30:00 PM 65.8978 -73.0995 136° Southeast  Level FlightAware Approximate
Wed 12:31:00 PM 65.8498 -72.9872 136° Southeast  Level FlightAware Approximate
Wed 12:31:15 PM 66.0333 -73.2667 137° Southeast 260 299 25,000  Level Edmonton Center
Wed 12:32:00 PM 65.8018 -72.8752 136° Southeast  Level FlightAware Approximate
Wed 12:32:15 PM 65.9833 -73.1000 126° Southeast 250 288 25,000  Level Edmonton Center
Wed 12:33:00 PM 65.7536 -72.7636 136° Southeast  Level FlightAware Approximate
Wed 12:33:15 PM 65.9333 -72.9833 136° Southeast 250 288 25,000  Level Edmonton Center
Wed 12:34:00 PM 65.7053 -72.6525 137° Southeast  Level FlightAware Approximate
Wed 12:34:15 PM 65.8833 -72.8833 141° Southeast 250 288 25,000  Level Edmonton Center
Wed 12:35:00 PM 65.6570 -72.5418 137° Southeast  Level FlightAware Approximate
Wed 12:35:15 PM 65.8333 -72.7500 132° Southeast 250 288 25,000  Level Edmonton Center
Wed 12:36:00 PM 65.6086 -72.4315 137° Southeast  Level FlightAware Approximate
Wed 12:36:15 PM 65.8000 -72.6667 134° Southeast 250 288 25,000  Level Edmonton Center
Wed 12:37:15 PM 65.7500 -72.5500 136° Southeast 250 288 25,000  Level Edmonton Center
Wed 12:37:47 PM 65.7667 -72.6667 289° West 250 288 25,000  Level Montreal Center
Wed 12:39:15 PM 65.6333 -72.3167 133° Southeast 250 288 25,000  Level Edmonton Center
Wed 12:39:47 PM 65.6667 -72.4333 305° West 250 288 25,000  Level Montreal Center
Wed 12:40:47 PM 65.6167 -72.3167 136° Southeast 250 288 25,000  Level Montreal Center
Wed 12:41:47 PM 65.5667 -72.2000 136° Southeast 250 288 25,000  Level Montreal Center
Wed 12:42:47 PM 65.5167 -72.1000 140° Southeast 250 288 25,000  Level Montreal Center
Wed 12:43:15 PM 65.4500 -71.8500 123° Southeast 240 276 25,000  Level Edmonton Center
Wed 12:43:47 PM 65.4667 -71.9833 287° West 250 288 25,000  Level Montreal Center
Wed 12:44:15 PM 65.3833 -71.7500 131° Southeast 250 288 25,000  Level Edmonton Center
Wed 12:45:15 PM 65.3333 -71.6333 136° Southeast 250 288 25,000  Level Edmonton Center
Wed 12:46:15 PM 65.3000 -71.5000 121° Southeast 250 288 25,000  Level Edmonton Center
Wed 12:47:15 PM 65.2500 -71.4167 145° Southeast 250 288 25,000  Level Edmonton Center
Wed 12:48:15 PM 65.1833 -71.2833 140° Southeast 250 288 25,000  Level Edmonton Center
Wed 12:49:15 PM 65.1333 -71.1667 136° Southeast 250 288 25,000  Level Edmonton Center
Wed 12:50:15 PM 65.0833 -71.0500 135° Southeast 250 288 25,000  Level Edmonton Center
Wed 12:50:47 PM 65.1167 -71.2000 298° West 250 288 25,000  Level Montreal Center
Wed 12:51:47 PM 65.0500 -71.0833 144° Southeast 250 288 25,000  Level Montreal Center
Wed 12:52:47 PM 65.0167 -70.9833 128° Southeast 250 288 25,000  Level Montreal Center
Wed 12:53:15 PM 64.9333 -70.7667 132° Southeast 250 288 25,000  Level Edmonton Center
Wed 12:54:15 PM 64.8833 -70.6500 135° Southeast 250 288 25,000  Level Edmonton Center
Wed 12:55:15 PM 64.8333 -70.5333 135° Southeast 250 288 25,000  Level Edmonton Center
Wed 12:56:15 PM 64.7667 -70.4000 140° Southeast 250 288 25,000  Level Edmonton Center
Wed 12:56:47 PM 64.8000 -70.5500 298° West 250 288 25,000  Level Montreal Center
Wed 12:57:15 PM 64.7167 -70.3000 128° Southeast 260 299 25,000  Level Edmonton Center
Wed 12:57:47 PM 64.7500 -70.4333 300° West 250 288 25,000  Level Montreal Center
Wed 12:58:15 PM 64.6667 -70.1833 128° Southeast 260 299 25,000  Level Edmonton Center
Wed 12:59:15 PM 64.6167 -70.0833 139° Southeast 260 299 25,000  Level Edmonton Center
Wed 12:59:47 PM 64.6500 -70.2167 300° West 260 299 25,000  Level Montreal Center
Wed 01:00:47 PM 64.5833 -70.1167 147° Southeast 260 299 25,000  Level Montreal Center
Wed 01:01:47 PM 64.5333 -69.9667 128° Southeast 260 299 25,000 -545 Level Montreal Center
Wed 01:02:15 PM 64.4500 -69.7667 134° Southeast 260 299 24,200 -2,045 Descending Edmonton Center
Wed 01:03:15 PM 64.3833 -69.6333 139° Southeast 290 334 22,000 -2,350 Descending Edmonton Center
Wed 01:04:15 PM 64.3167 -69.5000 139° Southeast 290 334 19,500 -2,348 Descending Edmonton Center
Wed 01:04:47 PM 64.3500 -69.6167 303° West 280 322 18,400 -2,478 Descending Montreal Center
Wed 01:05:47 PM 64.3000 -69.5167 139° Southeast 270 311 15,700 -2,450 Descending Montreal Center
Wed 01:06:47 PM 64.2500 -69.4167 139° Southeast 260 299 13,500 -2,150 Descending Montreal Center
Wed 01:07:47 PM 64.1833 -69.3167 147° Southeast 250 288 11,400 -1,950 Descending Montreal Center
Wed 01:08:47 PM 64.1333 -69.2500 150° Southeast 240 276 9,600 -1,800 Descending Montreal Center
Wed 01:09:47 PM 64.0833 -69.1500 139° Southeast 230 265 7,800 -1,600 Descending Montreal Center
Wed 01:10:47 PM 64.0333 -69.0333 134° Southeast 210 242 6,400 -1,250 Descending Montreal Center
Wed 01:11:47 PM 64.0000 -68.9667 139° Southeast 180 207 5,300 -1,000 Descending Montreal Center
Wed 01:12:47 PM 63.9667 -68.9500 168° South 140 161 4,400 -800 Descending Montreal Center
Wed 01:13:47 PM 63.9500 -68.8667 114° Southeast 130 150 3,700 -850 Descending Montreal Center
Wed 01:14:47 PM 63.9333 -68.8333 139° Southeast 120 138 2,700 -800 Descending Montreal Center
Wed 01:15:47 PM 63.9167 -68.8000 139° Southeast 90 104 2,100 -500 Descending Montreal Center
Wed 01:16:47 PM 63.9000 -68.7333 120° Southeast 90 104 1,700 -200 Descending Montreal Center
Wed 01:17:47 PM 63.8667 -68.7000 156° South 100 115 1,700 -50 Level Montreal Center
Wed 01:18:47 PM 63.8500 -68.6667 139° Southeast 80 92 1,600 -150 Descending Montreal Center
Wed 01:19:47 PM 63.8333 -68.6333 139° Southeast 80 92 1,400 -350 Descending Montreal Center
Wed 01:20:47 PM 63.8167 -68.6000 139° Southeast 80 92 900 -300 Descending Montreal Center
Wed 01:21:47 PM 63.8167 -68.5667 90° East 80 92 800 -350 Descending Montreal Center
Wed 01:22:47 PM 63.8000 -68.5333 139° Southeast 90 104 200 -600 Descending Montreal Center

Login

Don't have an account? Register now (free) for customized features, flight alerts, and more!